Time;durP1;ratioP1;P1;durP2;ratioP2;P2;SDS_P1;SDS_P2;PMS_P1;PMS_P2;Temp;Humidity;BMP_temperature;BMP_pressure;BME280_temperature;BME280_humidity;BME280_pressure;Samples;Min_cycle;Max_cycle;Signal;HPM_P1;HPM_P2
2023/09/13 00:03:52;;;;;;;;;;;;;;;19.55;100.00;99785.37;178044;1260;59129;-86
2023/09/13 00:07:56;;;;;;;;;;;;;;;19.51;100.00;99787.88;177362;1260;45676;-86
2023/09/13 00:11:59;;;;;;;;;;;;;;;19.50;100.00;99783.56;177473;1260;45120;-86
2023/09/13 00:16:02;;;;;;;;;;;;;;;19.51;100.00;99783.70;177347;1260;45856;-86
2023/09/13 00:20:07;;;;;;;;;;;;;;;19.47;100.00;99789.44;179022;1260;45831;-85
2023/09/13 00:24:10;;;;;;;;;;;;;;;19.46;100.00;99785.36;179957;1260;59357;-86
2023/09/13 00:28:13;;;;;;;;;;;;;;;19.47;100.00;99778.85;180892;1259;43583;-87
2023/09/13 00:32:17;;;;;;;;;;;;;;;19.49;100.00;99782.30;179523;1260;45916;-86
2023/09/13 00:36:21;;;;;;;;;;;;;;;19.52;100.00;99771.66;180292;1259;45105;-87
2023/09/13 00:40:24;;;;;;;;;;;;;;;19.50;100.00;99769.65;179928;1259;43625;-86
2023/09/13 00:44:27;;;;;;;;;;;;;;;19.45;100.00;99772.44;178884;1260;58665;-86
2023/09/13 00:48:31;;;;;;;;;;;;;;;19.41;100.00;99771.86;178815;1259;45901;-86
2023/09/13 00:52:35;;;;;;;;;;;;;;;19.38;100.00;99769.83;178708;1259;45805;-87
2023/09/13 00:56:39;;;;;;;;;;;;;;;19.39;100.00;99768.87;178251;1259;45798;-87
2023/09/13 01:00:43;;;;;;;;;;;;;;;19.38;100.00;99771.61;178603;1262;45824;-87
2023/09/13 01:04:49;;;;;;;;;;;;;;;19.36;100.00;99772.30;179018;1259;59224;-86
2023/09/13 01:09:04;;;;;;;;;;;;;;;19.34;100.00;99774.55;178023;1260;45756;-86
2023/09/13 01:13:15;;;;;;;;;;;;;;;19.33;100.00;99771.73;177521;1264;45874;-86
2023/09/13 01:18:22;;;;;;;;;;;;;;;19.33;100.00;99767.50;178043;1260;45866;-87
2023/09/13 01:23:32;;;;;;;;;;;;;;;19.25;100.00;99762.96;177293;1271;45973;-85
2023/09/13 01:28:31;;;;;;;;;;;;;;;19.24;100.00;99764.23;176027;1265;60567;-87
2023/09/13 01:33:04;;;;;;;;;;;;;;;19.23;100.00;99762.95;178078;1265;45774;-86
2023/09/13 01:37:07;;;;;;;;;;;;;;;19.25;100.00;99761.22;177535;1267;45891;-86
2023/09/13 01:41:14;;;;;;;;;;;;;;;19.24;100.00;99766.44;177188;1267;46103;-86
2023/09/13 01:45:18;;;;;;;;;;;;;;;19.19;100.00;99766.52;178909;1266;43816;-87
2023/09/13 01:49:25;;;;;;;;;;;;;;;19.16;100.00;99761.49;177393;1266;59718;-87
2023/09/13 01:53:29;;;;;;;;;;;;;;;19.13;100.00;99761.63;176837;1267;45873;-88
2023/09/13 01:57:42;;;;;;;;;;;;;;;19.21;100.00;99753.98;178048;1265;45158;-87
2023/09/13 02:01:48;;;;;;;;;;;;;;;19.23;100.00;99752.37;179277;1260;45085;-86
2023/09/13 02:05:52;;;;;;;;;;;;;;;19.12;100.00;99753.20;177397;1260;274348;-86
2023/09/13 02:09:55;;;;;;;;;;;;;;;19.03;100.00;99753.91;177267;1263;58601;-85
2023/09/13 02:13:59;;;;;;;;;;;;;;;19.01;100.00;99754.30;177211;1260;45807;-85
2023/09/13 02:18:03;;;;;;;;;;;;;;;19.02;100.00;99753.90;177374;1261;45906;-84
2023/09/13 02:22:06;;;;;;;;;;;;;;;19.00;100.00;99756.16;177281;1263;45918;-86
2023/09/13 02:26:20;;;;;;;;;;;;;;;18.98;100.00;99761.54;177870;1261;45911;-86
2023/09/13 02:30:31;;;;;;;;;;;;;;;19.00;100.00;99758.15;178384;1260;58090;-86
2023/09/13 02:34:34;;;;;;;;;;;;;;;19.05;100.00;99752.46;178631;1263;45958;-85
2023/09/13 02:38:37;;;;;;;;;;;;;;;19.05;100.00;99745.97;177730;1259;45769;-86
2023/09/13 02:42:41;;;;;;;;;;;;;;;19.03;100.00;99743.33;177915;1260;45891;-86
2023/09/13 02:46:44;;;;;;;;;;;;;;;19.01;100.00;99738.47;177296;1260;45849;-86
2023/09/13 02:50:47;;;;;;;;;;;;;;;19.01;100.00;99733.98;177445;1261;57792;-86
2023/09/13 02:54:51;;;;;;;;;;;;;;;19.00;100.00;99731.58;177299;1259;45841;-86
2023/09/13 02:58:55;;;;;;;;;;;;;;;19.01;100.00;99737.31;177496;1259;45793;-86
2023/09/13 03:02:58;;;;;;;;;;;;;;;18.84;100.00;99741.45;177521;1259;45998;-86
2023/09/13 03:07:03;;;;;;;;;;;;;;;18.59;100.00;99740.89;177276;1261;45707;-86
2023/09/13 03:11:13;;;;;;;;;;;;;;;18.44;100.00;99740.81;177278;1262;57732;-86
2023/09/13 03:15:16;;;;;;;;;;;;;;;18.36;100.00;99742.64;177025;1259;45863;-86
2023/09/13 03:19:19;;;;;;;;;;;;;;;18.35;100.00;99747.55;176851;1262;45699;-86
2023/09/13 03:23:23;;;;;;;;;;;;;;;18.41;100.00;99748.36;177296;1259;45921;-86
2023/09/13 03:27:26;;;;;;;;;;;;;;;18.51;100.00;99746.52;176922;1261;45828;-86
2023/09/13 03:31:31;;;;;;;;;;;;;;;18.55;100.00;99743.66;177013;1263;57789;-86
2023/09/13 03:35:35;;;;;;;;;;;;;;;18.59;100.00;99744.52;176993;1261;45840;-86
2023/09/13 03:39:43;;;;;;;;;;;;;;;18.67;100.00;99744.23;177097;1260;45885;-86
2023/09/13 03:43:46;;;;;;;;;;;;;;;18.73;100.00;99742.27;177054;1260;45799;-86
2023/09/13 03:47:49;;;;;;;;;;;;;;;18.66;100.00;99740.20;176864;1259;45773;-86
2023/09/13 03:51:53;;;;;;;;;;;;;;;18.48;100.00;99736.47;177066;1259;58493;-86
2023/09/13 03:55:57;;;;;;;;;;;;;;;18.45;100.00;99727.98;177109;1260;45939;-86
2023/09/13 04:00:00;;;;;;;;;;;;;;;18.40;100.00;99721.14;177001;1260;45884;-86
2023/09/13 04:04:03;;;;;;;;;;;;;;;18.37;100.00;99715.23;177272;1260;45913;-86
2023/09/13 04:08:06;;;;;;;;;;;;;;;18.34;100.00;99708.54;176805;1259;45885;-86
2023/09/13 04:12:10;;;;;;;;;;;;;;;18.24;100.00;99706.67;177052;1259;60176;-87
2023/09/13 04:16:15;;;;;;;;;;;;;;;18.01;100.00;99708.70;177156;1261;45911;-86
2023/09/13 04:20:20;;;;;;;;;;;;;;;17.93;100.00;99709.98;178159;1260;45872;-86
2023/09/13 04:24:23;;;;;;;;;;;;;;;17.85;100.00;99707.19;177572;1260;45939;-85
2023/09/13 04:28:26;;;;;;;;;;;;;;;17.80;100.00;99706.67;177516;1260;45911;-86
2023/09/13 04:32:30;;;;;;;;;;;;;;;17.81;100.00;99710.54;178081;1262;57726;-87
2023/09/13 04:36:34;;;;;;;;;;;;;;;17.89;100.00;99713.20;178508;1259;45774;-86
2023/09/13 04:40:41;;;;;;;;;;;;;;;17.89;100.00;99706.74;177921;1263;45887;-87
2023/09/13 04:44:45;;;;;;;;;;;;;;;17.93;100.00;99713.41;178158;1259;45904;-87
2023/09/13 04:48:48;;;;;;;;;;;;;;;17.93;100.00;99711.22;177585;1262;45846;-87
2023/09/13 04:52:52;;;;;;;;;;;;;;;18.01;100.00;99718.36;178720;1259;59248;-86
2023/09/13 04:57:01;;;;;;;;;;;;;;;18.38;100.00;99717.42;179999;1260;44123;-86
2023/09/13 05:01:12;;;;;;;;;;;;;;;18.81;100.00;99720.83;179024;1259;45836;-87
2023/09/13 05:05:24;;;;;;;;;;;;;;;19.05;100.00;99718.30;178338;1260;45807;-86
2023/09/13 05:14:14;;;;;;;;;;;;;;;19.73;100.00;99716.53;173651;1264;58424;-58
2023/09/13 05:18:17;;;;;;;;;;;;;;;20.17;100.00;99723.75;180168;1262;45702;-59
2023/09/13 05:22:21;;;;;;;;;;;;;;;20.38;100.00;99776.87;180227;1262;45733;-58
2023/09/13 05:26:24;;;;;;;;;;;;;;;20.05;100.00;99780.81;180134;1263;44682;-59
2023/09/13 05:30:31;;;;;;;;;;;;;;;20.49;100.00;99769.88;180215;1264;43399;-58
2023/09/13 05:34:40;;;;;;;;;;;;;;;20.98;100.00;99763.70;180225;1263;58336;-58
2023/09/13 05:38:45;;;;;;;;;;;;;;;21.50;100.00;99752.57;180078;1264;45406;-58
2023/09/13 05:42:48;;;;;;;;;;;;;;;21.90;100.00;99744.28;180193;1264;45164;-59
2023/09/13 05:47:17;;;;;;;;;;;;;;;22.24;100.00;99736.27;180152;1261;45760;-58
2023/09/13 05:51:21;;;;;;;;;;;;;;;22.64;100.00;99724.04;180103;1261;45829;-59
2023/09/13 05:55:29;;;;;;;;;;;;;;;22.97;100.00;99725.01;180090;1263;60071;-59
2023/09/13 05:59:35;;;;;;;;;;;;;;;23.46;100.00;99732.67;180178;1263;43682;-59
2023/09/13 06:03:46;;;;;;;;;;;;;;;23.80;100.00;99729.13;180185;1262;45717;-58
2023/09/13 06:07:50;;;;;;;;;;;;;;;24.08;99.32;99722.20;180177;1262;45769;-58
2023/09/13 06:12:24;;;;;;;;;;;;;;;24.21;99.58;99725.88;180237;1262;45936;-59
2023/09/13 06:16:29;;;;;;;;;;;;;;;24.55;96.62;99735.15;180150;1262;58235;-59
2023/09/13 06:20:32;;;;;;;;;;;;;;;24.36;94.75;99740.86;180192;1260;43253;-58
2023/09/13 06:24:37;;;;;;;;;;;;;;;23.93;97.69;99756.22;180307;1262;43653;-58
2023/09/13 06:28:40;;;;;;;;;;;;;;;23.80;99.31;99763.39;180178;1260;45744;-59
2023/09/13 06:32:46;;;;;;;;;;;;;;;23.66;100.00;99757.02;180372;1260;43378;-58
2023/09/13 06:37:09;;;;;;;;;;;;;;;23.50;100.00;99765.96;180171;1262;58818;-58
2023/09/13 06:41:14;;;;;;;;;;;;;;;23.45;100.00;99760.66;180178;1262;44817;-58
2023/09/13 06:45:37;;;;;;;;;;;;;;;23.58;100.00;99768.00;180251;1262;44408;-58
2023/09/13 06:50:00;;;;;;;;;;;;;;;23.80;100.00;99760.80;180351;1262;43600;-58
2023/09/13 06:54:11;;;;;;;;;;;;;;;24.06;99.71;99760.27;180276;1261;43394;-58
2023/09/13 06:58:17;;;;;;;;;;;;;;;24.50;98.58;99764.92;180432;1262;58004;-59
2023/09/13 07:02:25;;;;;;;;;;;;;;;24.67;93.47;99761.46;180263;1263;43751;-59
2023/09/13 07:06:36;;;;;;;;;;;;;;;24.99;93.49;99763.33;180333;1260;43665;-58
2023/09/13 07:10:39;;;;;;;;;;;;;;;25.43;91.83;99766.65;180255;1262;45732;-58
2023/09/13 07:19:19;;;;;;;;;;;;;;;26.06;83.34;99763.48;179237;1262;59523;-58
2023/09/13 07:23:27;;;;;;;;;;;;;;;26.02;82.95;99763.95;180152;1263;43470;-58
2023/09/13 07:27:31;;;;;;;;;;;;;;;26.23;83.44;99767.77;180035;1263;43450;-59
2023/09/13 07:31:40;;;;;;;;;;;;;;;26.48;82.47;99773.65;180113;1262;45807;-59
2023/09/13 07:35:45;;;;;;;;;;;;;;;26.62;81.01;99770.08;179955;1263;45855;-59
2023/09/13 07:39:48;;;;;;;;;;;;;;;26.89;80.72;99772.95;180074;1263;58641;-59
2023/09/13 07:43:51;;;;;;;;;;;;;;;27.09;78.78;99772.52;180072;1263;45683;-59
2023/09/13 07:47:55;;;;;;;;;;;;;;;27.26;78.15;99778.19;180068;1264;43304;-59
2023/09/13 07:51:59;;;;;;;;;;;;;;;27.31;77.05;99774.52;180043;1263;44463;-59
2023/09/13 07:56:04;;;;;;;;;;;;;;;27.42;77.47;99777.61;180167;1262;44820;-59
2023/09/13 08:00:13;;;;;;;;;;;;;;;27.48;77.00;99775.77;180207;1263;58194;-59
2023/09/13 08:04:16;;;;;;;;;;;;;;;27.62;76.25;99771.36;180015;1263;45513;-59
2023/09/13 08:08:22;;;;;;;;;;;;;;;27.50;75.48;99774.31;180228;1264;44326;-59
2023/09/13 08:12:26;;;;;;;;;;;;;;;27.49;76.58;99769.85;180168;1262;45188;-59
2023/09/13 08:16:34;;;;;;;;;;;;;;;27.54;76.35;99770.17;180260;1263;43848;-59
2023/09/13 08:20:39;;;;;;;;;;;;;;;27.77;76.18;99762.12;180222;1263;57710;-59
2023/09/13 08:24:43;;;;;;;;;;;;;;;28.01;75.75;99766.35;180186;1262;44405;-59
2023/09/13 08:28:46;;;;;;;;;;;;;;;28.23;73.36;99767.73;180272;1262;43514;-59
2023/09/13 08:32:50;;;;;;;;;;;;;;;28.40;72.75;99760.73;180144;1261;45729;-58
2023/09/13 08:36:57;;;;;;;;;;;;;;;28.48;71.65;99753.11;180144;1264;43301;-59
2023/09/13 08:41:13;;;;;;;;;;;;;;;28.63;73.03;99750.52;180159;1263;58527;-59
2023/09/13 08:45:16;;;;;;;;;;;;;;;28.67;72.71;99750.66;180171;1262;43747;-59
2023/09/13 08:49:21;;;;;;;;;;;;;;;28.70;72.87;99748.99;179892;1262;44710;-59
2023/09/13 08:53:25;;;;;;;;;;;;;;;28.61;71.94;99743.59;179896;1263;45715;-58
2023/09/13 08:57:30;;;;;;;;;;;;;;;28.50;72.99;99746.74;180028;1263;45718;-59
2023/09/13 09:01:33;;;;;;;;;;;;;;;28.50;73.69;99747.55;179968;1264;58052;-59
2023/09/13 09:05:37;;;;;;;;;;;;;;;28.43;73.05;99753.73;180118;1263;43462;-59
2023/09/13 09:09:52;;;;;;;;;;;;;;;28.20;73.35;99757.66;180174;1262;44697;-58
2023/09/13 09:13:59;;;;;;;;;;;;;;;28.16;74.38;99755.88;180035;1263;44872;-58
2023/09/13 09:18:07;;;;;;;;;;;;;;;28.07;73.44;99752.59;180223;1263;44684;-59
2023/09/13 09:22:10;;;;;;;;;;;;;;;28.06;73.63;99748.75;180081;1262;58349;-59
2023/09/13 09:26:13;;;;;;;;;;;;;;;28.15;73.93;99743.29;180092;1262;43600;-58
2023/09/13 09:35:15;;;;;;;;;;;;;;;28.43;73.09;99730.19;180362;1263;43395;-59
2023/09/13 09:39:21;;;;;;;;;;;;;;;28.53;72.42;99729.58;180343;1264;43471;-59
2023/09/13 09:43:25;;;;;;;;;;;;;;;28.75;72.07;99733.45;180334;1262;58658;-59
2023/09/13 09:47:38;;;;;;;;;;;;;;;28.94;71.58;99732.47;180373;1262;43404;-59
2023/09/13 09:51:41;;;;;;;;;;;;;;;29.05;70.57;99732.84;180273;1263;43274;-59
2023/09/13 09:55:45;;;;;;;;;;;;;;;29.15;70.10;99739.91;180278;1262;45876;-59
2023/09/13 09:59:50;;;;;;;;;;;;;;;29.26;69.14;99743.42;180346;1263;43613;-59
2023/09/13 10:04:06;;;;;;;;;;;;;;;29.20;68.83;99747.55;180181;1263;59156;-59
2023/09/13 10:08:10;;;;;;;;;;;;;;;29.15;69.64;99742.85;180236;1263;43538;-59
2023/09/13 10:12:14;;;;;;;;;;;;;;;29.42;70.96;99750.35;180302;1262;43281;-59
2023/09/13 10:16:18;;;;;;;;;;;;;;;29.65;69.08;99753.94;180295;1261;43409;-59
2023/09/13 10:20:25;;;;;;;;;;;;;;;29.80;67.67;99757.89;180139;1263;43622;-59
2023/09/13 10:24:52;;;;;;;;;;;;;;;29.90;69.09;99761.27;180074;1264;57738;-59
2023/09/13 10:29:01;;;;;;;;;;;;;;;30.01;69.46;99764.78;180116;1262;44357;-59
2023/09/13 10:33:07;;;;;;;;;;;;;;;30.07;68.72;99765.97;180238;1263;43451;-59
2023/09/13 10:42:02;;;;;;;;;;;;;;;29.96;69.40;99756.64;179695;1268;46369;-59
2023/09/13 10:46:08;;;;;;;;;;;;;;;29.93;70.99;99764.84;179862;1267;58737;-59
2023/09/13 10:50:15;;;;;;;;;;;;;;;29.85;70.09;99769.92;179739;1267;44323;-59
2023/09/13 10:59:53;;;;;;;;;;;;;;;29.83;68.64;99778.78;179615;1267;43581;-59
2023/09/13 11:04:05;;;;;;;;;;;;;;;29.89;67.84;99781.55;179718;1267;43306;-59
2023/09/13 11:08:12;;;;;;;;;;;;;;;29.86;67.52;99784.01;179863;1267;56865;-59
2023/09/13 11:12:15;;;;;;;;;;;;;;;29.93;67.97;99779.27;179690;1267;45765;-60
2023/09/13 11:16:22;;;;;;;;;;;;;;;30.04;66.72;99771.49;179778;1267;45809;-59
2023/09/13 11:20:38;;;;;;;;;;;;;;;30.21;66.29;99772.44;180079;1264;43691;-59
2023/09/13 11:24:43;;;;;;;;;;;;;;;30.21;63.58;99771.94;180235;1263;44460;-59
2023/09/13 11:29:23;;;;;;;;;;;;;;;30.25;64.42;99770.80;180170;1264;57946;-59
2023/09/13 11:33:27;;;;;;;;;;;;;;;30.40;67.76;99773.14;180068;1262;43473;-59
2023/09/13 11:37:32;;;;;;;;;;;;;;;30.58;67.94;99775.21;180254;1263;44878;-59
2023/09/13 11:41:39;;;;;;;;;;;;;;;30.69;66.63;99773.66;180158;1263;44375;-59
2023/09/13 11:45:58;;;;;;;;;;;;;;;30.60;67.40;99777.63;180091;1262;43607;-59
2023/09/13 11:50:03;;;;;;;;;;;;;;;30.58;68.51;99782.06;180212;1263;58109;-59
2023/09/13 11:54:16;;;;;;;;;;;;;;;30.46;68.92;99789.12;180244;1261;44003;-59
2023/09/13 11:58:32;;;;;;;;;;;;;;;30.16;70.08;99797.20;180175;1262;44594;-59
2023/09/13 12:02:47;;;;;;;;;;;;;;;29.85;71.24;99804.06;180218;1263;43495;-59
2023/09/13 12:06:57;;;;;;;;;;;;;;;29.36;70.86;99801.52;180082;1262;43792;-59
2023/09/13 12:11:09;;;;;;;;;;;;;;;28.98;72.58;99809.80;180241;1262;58221;-59
2023/09/13 12:15:18;;;;;;;;;;;;;;;28.90;76.15;99817.29;180182;1263;43591;-59
2023/09/13 12:19:25;;;;;;;;;;;;;;;28.91;76.50;99820.30;180248;1263;44151;-58
2023/09/13 12:23:35;;;;;;;;;;;;;;;28.88;76.71;99818.42;180165;1264;43685;-59
2023/09/13 12:27:39;;;;;;;;;;;;;;;29.02;76.95;99819.41;180070;1263;45669;-59
2023/09/13 12:31:46;;;;;;;;;;;;;;;29.00;75.75;99821.36;180200;1263;58907;-59
2023/09/13 12:35:50;;;;;;;;;;;;;;;28.89;75.15;99826.32;180050;1265;45720;-59
2023/09/13 12:39:55;;;;;;;;;;;;;;;28.84;74.20;99822.00;180140;1263;43560;-59
2023/09/13 12:43:59;;;;;;;;;;;;;;;28.77;72.53;99823.45;180201;1264;45138;-59
2023/09/13 12:48:07;;;;;;;;;;;;;;;28.68;71.99;99825.48;180138;1263;44374;-59
2023/09/13 12:52:15;;;;;;;;;;;;;;;28.50;73.08;99833.77;180183;1262;58299;-59
2023/09/13 12:56:18;;;;;;;;;;;;;;;28.25;72.65;99840.86;179996;1263;43885;-59
2023/09/13 13:00:21;;;;;;;;;;;;;;;27.99;73.02;99838.98;180065;1263;44834;-59
2023/09/13 13:04:59;;;;;;;;;;;;;;;27.84;74.59;99840.20;180097;1263;43239;-59
2023/09/13 13:09:08;;;;;;;;;;;;;;;27.67;78.23;99837.77;180053;1264;43334;-57
2023/09/13 13:13:36;;;;;;;;;;;;;;;27.59;76.49;99841.70;179910;1263;58170;-58
2023/09/13 13:17:39;;;;;;;;;;;;;;;27.71;76.05;99846.19;179885;1263;45786;-59
2023/09/13 13:21:52;;;;;;;;;;;;;;;27.96;75.71;99844.83;179941;1263;45869;-59
2023/09/13 13:26:18;;;;;;;;;;;;;;;28.29;74.92;99839.23;180013;1264;44584;-59
2023/09/13 13:30:32;;;;;;;;;;;;;;;28.50;72.65;99834.86;179943;1262;44497;-59
2023/09/13 13:34:36;;;;;;;;;;;;;;;28.69;70.94;99827.07;179937;1263;58975;-59
2023/09/13 13:38:42;;;;;;;;;;;;;;;28.72;69.57;99822.34;179879;1261;44044;-59
2023/09/13 13:42:46;;;;;;;;;;;;;;;28.56;70.48;99827.75;179992;1264;43446;-59
2023/09/13 13:46:49;;;;;;;;;;;;;;;28.52;72.81;99817.21;179923;1264;44339;-59
2023/09/13 13:50:53;;;;;;;;;;;;;;;28.64;72.34;99808.80;180033;1263;45729;-58
2023/09/13 13:54:57;;;;;;;;;;;;;;;28.71;71.23;99811.29;180050;1261;58429;-60
2023/09/13 13:59:03;;;;;;;;;;;;;;;28.76;71.10;99811.16;179985;1263;45653;-59
2023/09/13 14:03:09;;;;;;;;;;;;;;;28.76;71.22;99816.54;180142;1261;45744;-59
2023/09/13 14:07:13;;;;;;;;;;;;;;;28.71;70.99;99820.69;176820;1262;4204115;-87
2023/09/13 14:11:16;;;;;;;;;;;;;;;28.77;71.38;99825.07;179887;1259;45745;-86
2023/09/13 14:15:20;;;;;;;;;;;;;;;28.78;70.72;99822.52;179727;1261;57893;-86
2023/09/13 14:19:23;;;;;;;;;;;;;;;28.76;71.76;99822.13;180215;1263;43822;-86
2023/09/13 14:23:26;;;;;;;;;;;;;;;28.55;72.51;99834.54;180259;1259;43938;-86
2023/09/13 14:27:30;;;;;;;;;;;;;;;28.48;72.94;99833.58;180001;1260;43769;-86
2023/09/13 14:32:00;;;;;;;;;;;;;;;28.54;73.38;99827.09;179915;1261;45797;-87
2023/09/13 14:36:07;;;;;;;;;;;;;;;28.61;72.01;99820.42;180335;1260;57833;-86
2023/09/13 14:40:14;;;;;;;;;;;;;;;28.66;70.70;99821.58;179775;1260;45720;-86
2023/09/13 14:44:17;;;;;;;;;;;;;;;28.59;70.38;99823.73;179667;1260;45806;-86
2023/09/13 14:48:39;;;;;;;;;;;;;;;28.38;70.51;99828.27;179651;1260;44519;-86
2023/09/13 14:53:10;;;;;;;;;;;;;;;28.16;72.08;99826.90;179779;1260;44678;-87
2023/09/13 14:57:13;;;;;;;;;;;;;;;27.97;71.89;99827.58;179638;1260;59046;-86
2023/09/13 15:01:17;;;;;;;;;;;;;;;27.74;71.25;99830.16;179694;1260;43705;-86
2023/09/13 15:05:21;;;;;;;;;;;;;;;27.56;73.56;99837.92;179356;1261;45796;-87
2023/09/13 15:09:24;;;;;;;;;;;;;;;27.35;73.87;99836.77;179295;1261;45534;-87
2023/09/13 15:13:28;;;;;;;;;;;;;;;27.10;73.11;99841.77;179231;1261;45669;-87
2023/09/13 15:17:32;;;;;;;;;;;;;;;26.95;73.53;99848.42;179354;1260;57877;-87
2023/09/13 15:21:36;;;;;;;;;;;;;;;26.72;74.00;99855.58;179356;1260;45920;-87
2023/09/13 15:25:40;;;;;;;;;;;;;;;26.55;75.45;99865.23;179382;1261;45839;-87
2023/09/13 15:29:44;;;;;;;;;;;;;;;26.41;75.31;99869.53;179105;1261;44884;-86
2023/09/13 15:33:48;;;;;;;;;;;;;;;26.26;76.08;99867.64;179597;1263;45903;-87
2023/09/13 15:37:51;;;;;;;;;;;;;;;26.05;75.29;99874.91;179082;1260;59997;-86
2023/09/13 15:41:56;;;;;;;;;;;;;;;25.92;76.52;99876.86;178758;1260;43788;-86
2023/09/13 15:46:00;;;;;;;;;;;;;;;25.74;76.83;99879.28;179667;1261;45756;-87
2023/09/13 15:50:04;;;;;;;;;;;;;;;25.68;77.24;99888.35;179406;1260;44920;-86
2023/09/13 15:54:07;;;;;;;;;;;;;;;25.61;77.72;99894.00;179422;1263;45786;-86
2023/09/13 15:58:11;;;;;;;;;;;;;;;25.54;78.02;99893.90;179225;1260;57027;-86
2023/09/13 16:02:15;;;;;;;;;;;;;;;25.47;77.99;99894.16;179646;1260;45973;-85
2023/09/13 16:06:22;;;;;;;;;;;;;;;25.35;78.37;99883.79;179438;1260;44332;-86
2023/09/13 16:15:37;;;;;;;;;;;;;;;25.11;79.20;99880.55;153143;1259;44880;-59
2023/09/13 16:19:42;;;;;;;;;;;;;;;25.03;79.62;99878.40;180437;1259;58542;-60
2023/09/13 16:23:46;;;;;;;;;;;;;;;24.99;79.72;99875.79;180499;1259;45795;-60
2023/09/13 16:27:49;;;;;;;;;;;;;;;24.94;80.22;99873.47;180374;1259;45821;-59
2023/09/13 16:31:59;;;;;;;;;;;;;;;24.87;80.29;99877.80;180419;1259;43559;-60
2023/09/13 16:36:04;;;;;;;;;;;;;;;24.82;80.35;99880.13;180651;1259;45793;-60
2023/09/13 16:40:19;;;;;;;;;;;;;;;24.67;80.96;99887.23;180635;1260;58758;-59
2023/09/13 16:44:22;;;;;;;;;;;;;;;24.58;81.60;99899.61;180502;1259;45116;-60
2023/09/13 16:48:30;;;;;;;;;;;;;;;24.52;81.92;99904.99;180444;1259;46171;-59
2023/09/13 16:52:38;;;;;;;;;;;;;;;24.43;81.71;99912.08;180401;1258;43714;-60
2023/09/13 16:56:42;;;;;;;;;;;;;;;24.37;82.18;99914.98;180464;1258;44710;-59
2023/09/13 17:00:55;;;;;;;;;;;;;;;24.35;82.89;99921.73;180411;1259;57348;-62
2023/09/13 17:04:59;;;;;;;;;;;;;;;24.32;83.41;99925.66;180398;1260;44487;-60
2023/09/13 17:09:03;;;;;;;;;;;;;;;24.31;83.58;99940.40;180544;1259;44985;-61
2023/09/13 17:13:17;;;;;;;;;;;;;;;24.27;83.55;99945.96;180543;1259;43350;-61
2023/09/13 17:17:21;;;;;;;;;;;;;;;24.26;83.48;99959.05;180464;1259;43589;-60
2023/09/13 17:21:24;;;;;;;;;;;;;;;24.23;84.60;99963.18;180506;1260;58683;-60
2023/09/13 17:25:27;;;;;;;;;;;;;;;24.17;85.15;99970.67;180532;1259;45794;-60
2023/09/13 17:29:33;;;;;;;;;;;;;;;24.13;85.53;99981.70;180575;1258;43793;-60
2023/09/13 17:33:43;;;;;;;;;;;;;;;24.09;85.78;99987.39;180502;1259;43528;-60
2023/09/13 17:37:48;;;;;;;;;;;;;;;24.05;86.24;99993.35;180538;1259;44622;-60
2023/09/13 17:41:52;;;;;;;;;;;;;;;24.04;86.82;99998.38;180478;1260;58236;-60
2023/09/13 17:45:56;;;;;;;;;;;;;;;24.00;87.41;100007.46;180472;1259;45836;-60
2023/09/13 17:49:59;;;;;;;;;;;;;;;23.98;88.11;100011.19;180482;1259;43421;-60
2023/09/13 17:54:14;;;;;;;;;;;;;;;23.92;88.88;100018.59;180403;1260;43365;-61
2023/09/13 17:58:18;;;;;;;;;;;;;;;23.89;89.18;100027.55;180521;1260;45766;-60
2023/09/13 18:02:25;;;;;;;;;;;;;;;23.84;89.71;100036.66;180524;1259;58239;-60
2023/09/13 18:06:29;;;;;;;;;;;;;;;23.78;90.14;100040.75;180424;1263;45808;-60
2023/09/13 18:10:34;;;;;;;;;;;;;;;23.69;91.07;100045.60;180512;1259;43295;-59
2023/09/13 18:14:38;;;;;;;;;;;;;;;23.62;91.64;100050.71;180398;1259;43382;-59
2023/09/13 18:18:46;;;;;;;;;;;;;;;23.54;92.53;100056.48;180508;1259;44350;-59
2023/09/13 18:22:59;;;;;;;;;;;;;;;23.47;92.88;100063.77;180265;1260;59319;-59
2023/09/13 18:27:06;;;;;;;;;;;;;;;23.36;93.12;100067.93;180369;1259;43391;-59
2023/09/13 18:31:13;;;;;;;;;;;;;;;23.24;93.55;100070.92;180383;1259;43761;-60
2023/09/13 18:35:17;;;;;;;;;;;;;;;23.22;92.96;100073.39;180346;1260;45743;-61
2023/09/13 18:39:21;;;;;;;;;;;;;;;23.17;93.39;100075.95;180423;1259;44527;-59
2023/09/13 18:43:26;;;;;;;;;;;;;;;23.08;93.05;100076.89;180440;1259;57528;-59
2023/09/13 18:47:29;;;;;;;;;;;;;;;23.02;93.34;100080.71;180373;1259;44493;-60
2023/09/13 18:51:35;;;;;;;;;;;;;;;22.95;93.71;100082.40;180431;1259;44382;-59
2023/09/13 18:56:04;;;;;;;;;;;;;;;22.94;93.74;100084.57;180272;1263;45778;-60
2023/09/13 19:00:40;;;;;;;;;;;;;;;22.88;93.85;100088.46;180345;1260;43497;-61
2023/09/13 19:04:43;;;;;;;;;;;;;;;22.78;94.11;100085.95;180522;1260;58200;-60
2023/09/13 19:09:05;;;;;;;;;;;;;;;22.70;94.47;100088.51;180434;1260;45608;-60
2023/09/13 19:13:09;;;;;;;;;;;;;;;22.65;94.54;100094.85;180442;1259;44797;-61
2023/09/13 19:17:42;;;;;;;;;;;;;;;22.62;94.74;100097.48;180383;1259;43796;-60
2023/09/13 19:21:47;;;;;;;;;;;;;;;22.58;95.47;100094.17;180364;1260;43439;-60
2023/09/13 19:25:54;;;;;;;;;;;;;;;22.53;95.80;100093.11;180593;1259;57487;-60
2023/09/13 19:29:57;;;;;;;;;;;;;;;22.48;96.60;100090.34;180481;1260;45051;-60
2023/09/13 19:34:19;;;;;;;;;;;;;;;22.41;97.02;100091.25;180393;1260;44949;-59
2023/09/13 19:38:24;;;;;;;;;;;;;;;22.37;97.31;100095.54;180108;1260;44058;-59
2023/09/13 19:42:37;;;;;;;;;;;;;;;22.30;97.50;100102.59;180174;1259;45682;-60
2023/09/13 19:46:41;;;;;;;;;;;;;;;22.20;97.89;100109.63;180312;1260;58432;-60
2023/09/13 19:50:58;;;;;;;;;;;;;;;22.10;98.80;100110.20;180257;1261;44872;-59
2023/09/13 19:55:01;;;;;;;;;;;;;;;22.02;99.59;100114.90;180403;1259;43403;-60
2023/09/13 19:59:04;;;;;;;;;;;;;;;21.94;99.68;100117.38;180312;1260;44664;-60
2023/09/13 20:03:35;;;;;;;;;;;;;;;21.85;99.96;100122.77;180388;1261;44642;-59
2023/09/13 20:07:38;;;;;;;;;;;;;;;21.50;100.00;100132.90;180493;1263;58489;-59
2023/09/13 20:11:43;;;;;;;;;;;;;;;21.19;100.00;100132.72;180519;1261;44644;-60
2023/09/13 20:15:46;;;;;;;;;;;;;;;21.00;100.00;100140.69;180620;1260;43437;-59
2023/09/13 20:19:52;;;;;;;;;;;;;;;20.91;100.00;100145.44;180547;1259;44705;-60
2023/09/13 20:23:57;;;;;;;;;;;;;;;20.79;100.00;100146.86;180585;1260;45782;-60
2023/09/13 20:32:41;;;;;;;;;;;;;;;20.74;100.00;100154.45;180469;1259;43559;-59
2023/09/13 20:36:45;;;;;;;;;;;;;;;20.77;100.00;100156.98;180509;1259;43560;-60
2023/09/13 20:40:53;;;;;;;;;;;;;;;20.75;100.00;100156.90;180480;1260;45990;-59
2023/09/13 20:44:56;;;;;;;;;;;;;;;20.72;100.00;100160.41;180495;1260;45703;-59
2023/09/13 20:49:25;;;;;;;;;;;;;;;20.69;100.00;100165.69;180442;1260;60892;-60
2023/09/13 20:53:33;;;;;;;;;;;;;;;20.64;100.00;100177.15;180465;1263;45686;-59
2023/09/13 20:57:38;;;;;;;;;;;;;;;20.58;100.00;100184.53;180405;1260;43605;-60
2023/09/13 21:01:41;;;;;;;;;;;;;;;20.52;100.00;100195.55;180436;1260;45907;-61
2023/09/13 21:05:44;;;;;;;;;;;;;;;20.45;100.00;100196.98;180497;1260;44377;-60
2023/09/13 21:09:48;;;;;;;;;;;;;;;20.34;100.00;100202.99;180433;1259;58302;-60
2023/09/13 21:13:51;;;;;;;;;;;;;;;20.25;100.00;100203.95;180477;1260;44142;-59
2023/09/13 21:17:54;;;;;;;;;;;;;;;20.12;100.00;100209.66;180409;1260;45918;-60
2023/09/13 21:21:58;;;;;;;;;;;;;;;20.02;100.00;100212.23;180546;1260;44575;-60
2023/09/13 21:26:01;;;;;;;;;;;;;;;19.97;100.00;100215.29;180603;1260;43293;-60
2023/09/13 21:30:07;;;;;;;;;;;;;;;19.98;100.00;100226.02;180505;1259;59238;-60
2023/09/13 21:34:11;;;;;;;;;;;;;;;19.94;100.00;100229.91;180480;1259;44583;-60
2023/09/13 21:38:14;;;;;;;;;;;;;;;19.97;100.00;100236.02;180537;1260;44676;-60